sensor_id;sensor_type;location;lat;lon;timestamp;temperature;humidity
38514;DHT22;24282;48.400;10.808;2023-03-01T00:01:31;1.80;71.80
38514;DHT22;24282;48.400;10.808;2023-03-01T00:03:59;1.70;72.00
38514;DHT22;24282;48.400;10.808;2023-03-01T00:06:26;1.70;72.00
38514;DHT22;24282;48.400;10.808;2023-03-01T00:08:52;1.70;72.20
38514;DHT22;24282;48.400;10.808;2023-03-01T00:13:45;1.70;72.30
38514;DHT22;24282;48.400;10.808;2023-03-01T00:16:18;1.70;72.40
38514;DHT22;24282;48.400;10.808;2023-03-01T00:18:44;1.70;72.50
38514;DHT22;24282;48.400;10.808;2023-03-01T00:21:10;1.70;72.60
38514;DHT22;24282;48.400;10.808;2023-03-01T00:23:36;1.70;72.70
38514;DHT22;24282;48.400;10.808;2023-03-01T00:26:06;1.70;72.80
38514;DHT22;24282;48.400;10.808;2023-03-01T00:28:32;1.70;72.70
38514;DHT22;24282;48.400;10.808;2023-03-01T00:31:25;1.70;72.80
38514;DHT22;24282;48.400;10.808;2023-03-01T00:33:57;1.70;72.90
38514;DHT22;24282;48.400;10.808;2023-03-01T00:36:25;1.70;73.10
38514;DHT22;24282;48.400;10.808;2023-03-01T00:38:51;1.70;73.20
38514;DHT22;24282;48.400;10.808;2023-03-01T00:41:17;1.70;73.20
38514;DHT22;24282;48.400;10.808;2023-03-01T00:43:44;1.70;73.10
38514;DHT22;24282;48.400;10.808;2023-03-01T00:46:12;1.70;73.20
38514;DHT22;24282;48.400;10.808;2023-03-01T00:48:39;1.70;73.30
38514;DHT22;24282;48.400;10.808;2023-03-01T00:53:32;1.70;73.30
38514;DHT22;24282;48.400;10.808;2023-03-01T00:55:58;1.70;73.60
38514;DHT22;24282;48.400;10.808;2023-03-01T00:58:24;1.70;73.50
38514;DHT22;24282;48.400;10.808;2023-03-01T01:00:50;1.60;73.40
38514;DHT22;24282;48.400;10.808;2023-03-01T01:03:16;1.60;73.50
38514;DHT22;24282;48.400;10.808;2023-03-01T01:05:41;1.60;73.60
38514;DHT22;24282;48.400;10.808;2023-03-01T01:08:07;1.60;73.60
38514;DHT22;24282;48.400;10.808;2023-03-01T01:10:36;1.60;73.80
38514;DHT22;24282;48.400;10.808;2023-03-01T01:13:02;1.60;73.60
38514;DHT22;24282;48.400;10.808;2023-03-01T01:15:28;1.60;73.80
38514;DHT22;24282;48.400;10.808;2023-03-01T01:17:53;1.60;73.80
38514;DHT22;24282;48.400;10.808;2023-03-01T01:20:20;1.60;73.80
38514;DHT22;24282;48.400;10.808;2023-03-01T01:22:46;1.60;73.60
38514;DHT22;24282;48.400;10.808;2023-03-01T01:25:12;1.60;73.80
38514;DHT22;24282;48.400;10.808;2023-03-01T01:27:38;1.50;74.00
38514;DHT22;24282;48.400;10.808;2023-03-01T01:30:04;1.60;74.20
38514;DHT22;24282;48.400;10.808;2023-03-01T01:32:30;1.60;73.90
38514;DHT22;24282;48.400;10.808;2023-03-01T01:34:56;1.60;73.80
38514;DHT22;24282;48.400;10.808;2023-03-01T01:37:22;1.60;73.70
38514;DHT22;24282;48.400;10.808;2023-03-01T01:39:47;1.60;73.90
38514;DHT22;24282;48.400;10.808;2023-03-01T01:42:17;1.50;73.90
38514;DHT22;24282;48.400;10.808;2023-03-01T01:44:46;1.60;73.90
38514;DHT22;24282;48.400;10.808;2023-03-01T01:47:18;1.50;73.90
38514;DHT22;24282;48.400;10.808;2023-03-01T01:49:52;1.50;74.00
38514;DHT22;24282;48.400;10.808;2023-03-01T01:52:26;1.50;73.90
38514;DHT22;24282;48.400;10.808;2023-03-01T01:55:35;1.50;74.00
38514;DHT22;24282;48.400;10.808;2023-03-01T01:57:44;1.50;73.90
38514;DHT22;24282;48.400;10.808;2023-03-01T02:00:14;1.50;73.80
38514;DHT22;24282;48.400;10.808;2023-03-01T02:02:44;1.50;74.10
38514;DHT22;24282;48.400;10.808;2023-03-01T02:05:15;1.50;74.00
38514;DHT22;24282;48.400;10.808;2023-03-01T02:07:43;1.50;73.90
38514;DHT22;24282;48.400;10.808;2023-03-01T02:10:10;1.50;73.60
38514;DHT22;24282;48.400;10.808;2023-03-01T02:12:36;1.50;73.80
38514;DHT22;24282;48.400;10.808;2023-03-01T02:15:04;1.50;73.80
38514;DHT22;24282;48.400;10.808;2023-03-01T02:17:30;1.50;73.80
38514;DHT22;24282;48.400;10.808;2023-03-01T02:20:12;1.50;73.90
38514;DHT22;24282;48.400;10.808;2023-03-01T02:22:40;1.50;73.90
38514;DHT22;24282;48.400;10.808;2023-03-01T02:25:35;1.50;73.90
38514;DHT22;24282;48.400;10.808;2023-03-01T02:30:39;1.50;73.50
38514;DHT22;24282;48.400;10.808;2023-03-01T02:33:26;1.50;73.80
38514;DHT22;24282;48.400;10.808;2023-03-01T02:35:54;1.50;73.90
38514;DHT22;24282;48.400;10.808;2023-03-01T02:38:21;1.40;74.10
38514;DHT22;24282;48.400;10.808;2023-03-01T02:40:49;1.40;74.00
38514;DHT22;24282;48.400;10.808;2023-03-01T02:43:16;1.40;74.00
38514;DHT22;24282;48.400;10.808;2023-03-01T02:45:48;1.40;74.10
38514;DHT22;24282;48.400;10.808;2023-03-01T02:48:16;1.50;73.80
38514;DHT22;24282;48.400;10.808;2023-03-01T02:56:04;1.50;73.60
38514;DHT22;24282;48.400;10.808;2023-03-01T02:58:30;1.50;73.20
38514;DHT22;24282;48.400;10.808;2023-03-01T03:00:56;1.50;73.20
38514;DHT22;24282;48.400;10.808;2023-03-01T03:03:22;1.50;73.10
38514;DHT22;24282;48.400;10.808;2023-03-01T03:05:48;1.50;73.00
38514;DHT22;24282;48.400;10.808;2023-03-01T03:08:14;1.40;73.00
38514;DHT22;24282;48.400;10.808;2023-03-01T03:10:42;1.40;73.00
38514;DHT22;24282;48.400;10.808;2023-03-01T03:13:13;1.40;73.10
38514;DHT22;24282;48.400;10.808;2023-03-01T03:15:41;1.50;73.00
38514;DHT22;24282;48.400;10.808;2023-03-01T03:18:10;1.40;73.10
38514;DHT22;24282;48.400;10.808;2023-03-01T03:20:36;1.40;73.00
38514;DHT22;24282;48.400;10.808;2023-03-01T03:23:03;1.40;73.00
38514;DHT22;24282;48.400;10.808;2023-03-01T03:25:30;1.40;73.00
38514;DHT22;24282;48.400;10.808;2023-03-01T03:27:56;1.40;72.90
38514;DHT22;24282;48.400;10.808;2023-03-01T03:30:28;1.40;72.60
38514;DHT22;24282;48.400;10.808;2023-03-01T03:32:55;1.40;72.70
38514;DHT22;24282;48.400;10.808;2023-03-01T03:35:33;1.40;72.30
38514;DHT22;24282;48.400;10.808;2023-03-01T03:38:06;1.40;72.20
38514;DHT22;24282;48.400;10.808;2023-03-01T03:40:39;1.40;72.00
38514;DHT22;24282;48.400;10.808;2023-03-01T03:43:14;1.40;72.00
38514;DHT22;24282;48.400;10.808;2023-03-01T03:45:40;1.40;72.30
38514;DHT22;24282;48.400;10.808;2023-03-01T03:48:07;1.50;72.10
38514;DHT22;24282;48.400;10.808;2023-03-01T03:50:34;1.40;71.90
38514;DHT22;24282;48.400;10.808;2023-03-01T03:53:02;1.40;72.00
38514;DHT22;24282;48.400;10.808;2023-03-01T03:55:29;1.40;71.90
38514;DHT22;24282;48.400;10.808;2023-03-01T03:57:58;1.40;72.10
38514;DHT22;24282;48.400;10.808;2023-03-01T04:00:27;1.40;72.30
38514;DHT22;24282;48.400;10.808;2023-03-01T04:02:53;1.40;72.50
38514;DHT22;24282;48.400;10.808;2023-03-01T04:05:21;1.40;72.50
38514;DHT22;24282;48.400;10.808;2023-03-01T04:07:47;1.40;72.20
38514;DHT22;24282;48.400;10.808;2023-03-01T04:10:16;1.40;72.00
38514;DHT22;24282;48.400;10.808;2023-03-01T04:12:42;1.40;72.10
38514;DHT22;24282;48.400;10.808;2023-03-01T04:15:10;1.50;71.80
38514;DHT22;24282;48.400;10.808;2023-03-01T04:17:40;1.40;71.80
38514;DHT22;24282;48.400;10.808;2023-03-01T04:20:08;1.40;71.80
38514;DHT22;24282;48.400;10.808;2023-03-01T04:22:34;1.40;71.90
38514;DHT22;24282;48.400;10.808;2023-03-01T04:25:00;1.40;71.80
38514;DHT22;24282;48.400;10.808;2023-03-01T04:27:34;1.40;71.60
38514;DHT22;24282;48.400;10.808;2023-03-01T04:30:02;1.40;71.70
38514;DHT22;24282;48.400;10.808;2023-03-01T04:32:28;1.40;71.70
38514;DHT22;24282;48.400;10.808;2023-03-01T04:34:53;1.40;71.80
38514;DHT22;24282;48.400;10.808;2023-03-01T04:37:19;1.40;71.60
38514;DHT22;24282;48.400;10.808;2023-03-01T04:39:45;1.40;71.50
38514;DHT22;24282;48.400;10.808;2023-03-01T04:42:19;1.40;71.20
38514;DHT22;24282;48.400;10.808;2023-03-01T04:44:45;1.40;71.40
38514;DHT22;24282;48.400;10.808;2023-03-01T04:47:11;1.40;71.50
38514;DHT22;24282;48.400;10.808;2023-03-01T04:49:37;1.40;71.40
38514;DHT22;24282;48.400;10.808;2023-03-01T04:52:04;1.30;71.40
38514;DHT22;24282;48.400;10.808;2023-03-01T04:54:31;1.30;71.70
38514;DHT22;24282;48.400;10.808;2023-03-01T04:56:57;1.30;71.40
38514;DHT22;24282;48.400;10.808;2023-03-01T04:59:24;1.20;71.30
38514;DHT22;24282;48.400;10.808;2023-03-01T05:01:51;1.20;71.30
38514;DHT22;24282;48.400;10.808;2023-03-01T05:04:16;1.20;71.30
38514;DHT22;24282;48.400;10.808;2023-03-01T05:06:42;1.10;71.60
38514;DHT22;24282;48.400;10.808;2023-03-01T05:09:09;1.10;71.60
38514;DHT22;24282;48.400;10.808;2023-03-01T05:11:34;1.10;71.60
38514;DHT22;24282;48.400;10.808;2023-03-01T05:14:05;1.00;71.80
38514;DHT22;24282;48.400;10.808;2023-03-01T05:16:32;1.00;71.80
38514;DHT22;24282;48.400;10.808;2023-03-01T05:18:58;1.00;71.80
38514;DHT22;24282;48.400;10.808;2023-03-01T05:21:24;0.90;71.80
38514;DHT22;24282;48.400;10.808;2023-03-01T05:23:50;0.90;72.10
38514;DHT22;24282;48.400;10.808;2023-03-01T05:26:18;0.80;72.30
38514;DHT22;24282;48.400;10.808;2023-03-01T05:28:44;0.80;72.30
38514;DHT22;24282;48.400;10.808;2023-03-01T05:31:10;0.80;72.30
38514;DHT22;24282;48.400;10.808;2023-03-01T05:33:37;0.80;72.30
38514;DHT22;24282;48.400;10.808;2023-03-01T05:36:04;0.70;72.20
38514;DHT22;24282;48.400;10.808;2023-03-01T05:38:29;0.70;72.20
38514;DHT22;24282;48.400;10.808;2023-03-01T05:40:55;0.70;72.30
38514;DHT22;24282;48.400;10.808;2023-03-01T05:43:21;0.60;72.30
38514;DHT22;24282;48.400;10.808;2023-03-01T05:45:47;0.60;72.50
38514;DHT22;24282;48.400;10.808;2023-03-01T05:48:13;0.60;72.60
38514;DHT22;24282;48.400;10.808;2023-03-01T05:50:44;0.60;72.80
38514;DHT22;24282;48.400;10.808;2023-03-01T05:53:18;0.60;72.60
38514;DHT22;24282;48.400;10.808;2023-03-01T05:55:46;0.50;72.90
38514;DHT22;24282;48.400;10.808;2023-03-01T05:58:18;0.50;73.00
38514;DHT22;24282;48.400;10.808;2023-03-01T06:00:45;0.50;73.10
38514;DHT22;24282;48.400;10.808;2023-03-01T06:03:13;0.40;73.20
38514;DHT22;24282;48.400;10.808;2023-03-01T06:05:40;0.40;73.20
38514;DHT22;24282;48.400;10.808;2023-03-01T06:08:06;0.40;73.40
38514;DHT22;24282;48.400;10.808;2023-03-01T06:10:31;0.40;73.50
38514;DHT22;24282;48.400;10.808;2023-03-01T06:12:57;0.30;73.70
38514;DHT22;24282;48.400;10.808;2023-03-01T06:15:24;0.30;73.70
38514;DHT22;24282;48.400;10.808;2023-03-01T06:17:50;0.30;73.70
38514;DHT22;24282;48.400;10.808;2023-03-01T06:20:19;0.30;73.80
38514;DHT22;24282;48.400;10.808;2023-03-01T06:22:45;0.30;73.70
38514;DHT22;24282;48.400;10.808;2023-03-01T06:25:13;0.30;73.80
38514;DHT22;24282;48.400;10.808;2023-03-01T06:27:40;0.20;73.70
38514;DHT22;24282;48.400;10.808;2023-03-01T06:30:06;0.20;73.90
38514;DHT22;24282;48.400;10.808;2023-03-01T06:32:33;0.20;74.00
38514;DHT22;24282;48.400;10.808;2023-03-01T06:34:59;0.20;74.10
38514;DHT22;24282;48.400;10.808;2023-03-01T06:37:25;0.20;74.10
38514;DHT22;24282;48.400;10.808;2023-03-01T06:39:51;0.20;74.10
38514;DHT22;24282;48.400;10.808;2023-03-01T06:42:17;0.20;74.30
38514;DHT22;24282;48.400;10.808;2023-03-01T06:44:44;0.20;74.40
38514;DHT22;24282;48.400;10.808;2023-03-01T06:47:09;0.20;74.40
38514;DHT22;24282;48.400;10.808;2023-03-01T06:49:35;0.20;74.50
38514;DHT22;24282;48.400;10.808;2023-03-01T06:52:01;0.30;74.40
38514;DHT22;24282;48.400;10.808;2023-03-01T06:54:26;0.30;74.40
38514;DHT22;24282;48.400;10.808;2023-03-01T06:56:52;0.20;74.60
38514;DHT22;24282;48.400;10.808;2023-03-01T06:59:18;0.30;74.90
38514;DHT22;24282;48.400;10.808;2023-03-01T07:01:44;0.40;74.60
38514;DHT22;24282;48.400;10.808;2023-03-01T07:04:11;0.40;74.50
38514;DHT22;24282;48.400;10.808;2023-03-01T07:06:36;0.40;74.50
38514;DHT22;24282;48.400;10.808;2023-03-01T07:09:02;0.40;74.60
38514;DHT22;24282;48.400;10.808;2023-03-01T07:11:28;0.40;74.40
38514;DHT22;24282;48.400;10.808;2023-03-01T07:13:54;0.50;74.50
38514;DHT22;24282;48.400;10.808;2023-03-01T07:16:20;0.50;74.60
38514;DHT22;24282;48.400;10.808;2023-03-01T07:18:46;0.60;74.40
38514;DHT22;24282;48.400;10.808;2023-03-01T07:21:13;0.60;74.20
38514;DHT22;24282;48.400;10.808;2023-03-01T07:23:40;0.60;74.10
38514;DHT22;24282;48.400;10.808;2023-03-01T07:26:06;0.60;74.40
38514;DHT22;24282;48.400;10.808;2023-03-01T07:28:32;0.60;74.10
38514;DHT22;24282;48.400;10.808;2023-03-01T07:31:02;0.60;73.90
38514;DHT22;24282;48.400;10.808;2023-03-01T07:33:28;0.70;73.60
38514;DHT22;24282;48.400;10.808;2023-03-01T07:35:58;0.80;73.50
38514;DHT22;24282;48.400;10.808;2023-03-01T07:38:25;0.80;73.40
38514;DHT22;24282;48.400;10.808;2023-03-01T07:40:51;0.80;73.30
38514;DHT22;24282;48.400;10.808;2023-03-01T07:43:17;0.90;73.10
38514;DHT22;24282;48.400;10.808;2023-03-01T07:45:43;0.90;72.80
38514;DHT22;24282;48.400;10.808;2023-03-01T07:48:09;1.00;72.70
38514;DHT22;24282;48.400;10.808;2023-03-01T07:50:35;1.00;72.50
38514;DHT22;24282;48.400;10.808;2023-03-01T07:53:01;1.10;72.10
38514;DHT22;24282;48.400;10.808;2023-03-01T07:55:26;1.10;72.00
38514;DHT22;24282;48.400;10.808;2023-03-01T07:57:52;1.10;71.70
38514;DHT22;24282;48.400;10.808;2023-03-01T08:00:18;1.20;71.30
38514;DHT22;24282;48.400;10.808;2023-03-01T08:02:44;1.20;71.30
38514;DHT22;24282;48.400;10.808;2023-03-01T08:05:11;1.30;71.20
38514;DHT22;24282;48.400;10.808;2023-03-01T08:07:37;1.30;71.40
38514;DHT22;24282;48.400;10.808;2023-03-01T08:10:03;1.30;71.20
38514;DHT22;24282;48.400;10.808;2023-03-01T08:12:29;1.30;71.40
38514;DHT22;24282;48.400;10.808;2023-03-01T08:14:54;1.40;71.20
38514;DHT22;24282;48.400;10.808;2023-03-01T08:17:20;1.40;71.10
38514;DHT22;24282;48.400;10.808;2023-03-01T08:19:46;1.50;70.90
38514;DHT22;24282;48.400;10.808;2023-03-01T08:22:12;1.50;70.50
38514;DHT22;24282;48.400;10.808;2023-03-01T08:24:37;1.50;70.40
38514;DHT22;24282;48.400;10.808;2023-03-01T08:27:03;1.50;70.40
38514;DHT22;24282;48.400;10.808;2023-03-01T08:29:33;1.50;70.40
38514;DHT22;24282;48.400;10.808;2023-03-01T08:31:59;1.60;70.30
38514;DHT22;24282;48.400;10.808;2023-03-01T08:34:25;1.60;70.20
38514;DHT22;24282;48.400;10.808;2023-03-01T08:36:51;1.70;69.30
38514;DHT22;24282;48.400;10.808;2023-03-01T08:39:19;1.70;69.20
38514;DHT22;24282;48.400;10.808;2023-03-01T08:41:46;1.80;69.20
38514;DHT22;24282;48.400;10.808;2023-03-01T08:44:13;1.80;68.90
38514;DHT22;24282;48.400;10.808;2023-03-01T08:46:42;1.80;69.20
38514;DHT22;24282;48.400;10.808;2023-03-01T08:49:17;1.80;69.10
38514;DHT22;24282;48.400;10.808;2023-03-01T08:51:44;1.80;68.90
38514;DHT22;24282;48.400;10.808;2023-03-01T08:54:15;1.90;68.80
38514;DHT22;24282;48.400;10.808;2023-03-01T08:56:41;1.90;68.80
38514;DHT22;24282;48.400;10.808;2023-03-01T08:59:07;2.00;69.00
38514;DHT22;24282;48.400;10.808;2023-03-01T09:01:33;2.00;68.90
38514;DHT22;24282;48.400;10.808;2023-03-01T09:03:59;2.10;69.00
38514;DHT22;24282;48.400;10.808;2023-03-01T09:06:25;2.10;68.60
38514;DHT22;24282;48.400;10.808;2023-03-01T09:08:51;2.10;68.20
38514;DHT22;24282;48.400;10.808;2023-03-01T09:11:20;2.20;68.30
38514;DHT22;24282;48.400;10.808;2023-03-01T09:13:47;2.20;68.50
38514;DHT22;24282;48.400;10.808;2023-03-01T09:16:15;2.30;68.50
38514;DHT22;24282;48.400;10.808;2023-03-01T09:18:43;2.30;68.20
38514;DHT22;24282;48.400;10.808;2023-03-01T09:21:12;2.40;68.00
38514;DHT22;24282;48.400;10.808;2023-03-01T09:23:40;2.40;68.00
38514;DHT22;24282;48.400;10.808;2023-03-01T09:26:08;2.50;68.20
38514;DHT22;24282;48.400;10.808;2023-03-01T09:28:35;2.50;67.60
38514;DHT22;24282;48.400;10.808;2023-03-01T09:31:01;2.60;67.10
38514;DHT22;24282;48.400;10.808;2023-03-01T09:33:28;2.70;66.80
38514;DHT22;24282;48.400;10.808;2023-03-01T09:36:03;2.80;66.50
38514;DHT22;24282;48.400;10.808;2023-03-01T09:38:29;2.90;66.20
38514;DHT22;24282;48.400;10.808;2023-03-01T09:40:56;2.90;66.00
38514;DHT22;24282;48.400;10.808;2023-03-01T09:46:01;3.00;65.90
38514;DHT22;24282;48.400;10.808;2023-03-01T09:48:33;3.20;65.20
38514;DHT22;24282;48.400;10.808;2023-03-01T09:51:08;3.30;64.30
38514;DHT22;24282;48.400;10.808;2023-03-01T09:53:34;3.40;64.90
38514;DHT22;24282;48.400;10.808;2023-03-01T09:56:26;3.50;64.90
38514;DHT22;24282;48.400;10.808;2023-03-01T09:59:26;3.60;64.20
38514;DHT22;24282;48.400;10.808;2023-03-01T10:05:03;3.60;63.20
38514;DHT22;24282;48.400;10.808;2023-03-01T10:07:49;3.60;63.30
38514;DHT22;24282;48.400;10.808;2023-03-01T10:10:40;3.70;63.20
38514;DHT22;24282;48.400;10.808;2023-03-01T10:13:25;3.60;63.30
38514;DHT22;24282;48.400;10.808;2023-03-01T10:15:56;3.70;62.80
38514;DHT22;24282;48.400;10.808;2023-03-01T10:18:26;3.60;62.80
38514;DHT22;24282;48.400;10.808;2023-03-01T10:21:13;3.70;63.50
38514;DHT22;24282;48.400;10.808;2023-03-01T10:23:40;3.80;63.10
38514;DHT22;24282;48.400;10.808;2023-03-01T10:29:10;3.80;62.80
38514;DHT22;24282;48.400;10.808;2023-03-01T10:31:50;3.80;62.90
38514;DHT22;24282;48.400;10.808;2023-03-01T10:34:25;3.90;63.20
38514;DHT22;24282;48.400;10.808;2023-03-01T10:37:17;4.00;62.90
38514;DHT22;24282;48.400;10.808;2023-03-01T10:40:04;4.10;62.30
38514;DHT22;24282;48.400;10.808;2023-03-01T10:42:34;4.10;61.90
38514;DHT22;24282;48.400;10.808;2023-03-01T10:48:11;4.20;62.00
38514;DHT22;24282;48.400;10.808;2023-03-01T10:50:42;4.20;61.60
38514;DHT22;24282;48.400;10.808;2023-03-01T10:53:28;4.20;62.30
38514;DHT22;24282;48.400;10.808;2023-03-01T10:56:00;4.20;61.90
38514;DHT22;24282;48.400;10.808;2023-03-01T10:58:27;4.20;62.10
38514;DHT22;24282;48.400;10.808;2023-03-01T11:01:01;4.30;62.50
38514;DHT22;24282;48.400;10.808;2023-03-01T11:03:34;4.40;62.20
38514;DHT22;24282;48.400;10.808;2023-03-01T11:13:31;4.60;61.10
38514;DHT22;24282;48.400;10.808;2023-03-01T11:16:02;4.70;61.00
38514;DHT22;24282;48.400;10.808;2023-03-01T11:18:30;4.80;61.20
38514;DHT22;24282;48.400;10.808;2023-03-01T11:20:58;4.80;60.60
38514;DHT22;24282;48.400;10.808;2023-03-01T11:23:25;4.80;60.20
38514;DHT22;24282;48.400;10.808;2023-03-01T11:25:58;4.80;60.20
38514;DHT22;24282;48.400;10.808;2023-03-01T11:28:27;4.90;60.20
38514;DHT22;24282;48.400;10.808;2023-03-01T11:30:58;5.00;60.20
38514;DHT22;24282;48.400;10.808;2023-03-01T11:33:51;5.00;60.90
38514;DHT22;24282;48.400;10.808;2023-03-01T11:39:26;5.20;59.70
38514;DHT22;24282;48.400;10.808;2023-03-01T11:42:06;5.30;59.30
38514;DHT22;24282;48.400;10.808;2023-03-01T11:44:36;5.30;59.40
38514;DHT22;24282;48.400;10.808;2023-03-01T11:47:18;5.40;59.60
38514;DHT22;24282;48.400;10.808;2023-03-01T11:50:19;5.50;59.20
38514;DHT22;24282;48.400;10.808;2023-03-01T11:55:54;5.80;58.80
38514;DHT22;24282;48.400;10.808;2023-03-01T12:07:00;6.40;57.20
38514;DHT22;24282;48.400;10.808;2023-03-01T12:12:26;6.70;56.70
38514;DHT22;24282;48.400;10.808;2023-03-01T12:18:09;7.10;55.90
38514;DHT22;24282;48.400;10.808;2023-03-01T12:24:06;7.50;54.40
38514;DHT22;24282;48.400;10.808;2023-03-01T12:26:41;7.50;54.60
38514;DHT22;24282;48.400;10.808;2023-03-01T12:51:29;8.20;53.00
38514;DHT22;24282;48.400;10.808;2023-03-01T12:53:58;8.30;53.40
38514;DHT22;24282;48.400;10.808;2023-03-01T12:56:30;8.40;53.00
38514;DHT22;24282;48.400;10.808;2023-03-01T13:07:39;8.50;51.90
38514;DHT22;24282;48.400;10.808;2023-03-01T13:10:26;8.40;52.30
38514;DHT22;24282;48.400;10.808;2023-03-01T13:17:53;8.20;53.00
38514;DHT22;24282;48.400;10.808;2023-03-01T13:20:21;8.00;53.20
38514;DHT22;24282;48.400;10.808;2023-03-01T13:23:03;8.00;53.70
38514;DHT22;24282;48.400;10.808;2023-03-01T13:25:29;8.00;54.00
38514;DHT22;24282;48.400;10.808;2023-03-01T13:30:59;7.90;53.70
38514;DHT22;24282;48.400;10.808;2023-03-01T13:35:55;7.80;54.20
38514;DHT22;24282;48.400;10.808;2023-03-01T13:38:47;7.80;54.20
38514;DHT22;24282;48.400;10.808;2023-03-01T13:41:16;7.70;54.50
38514;DHT22;24282;48.400;10.808;2023-03-01T13:43:44;7.70;54.40
38514;DHT22;24282;48.400;10.808;2023-03-01T13:46:23;7.60;54.90
38514;DHT22;24282;48.400;10.808;2023-03-01T13:48:55;7.60;54.60
38514;DHT22;24282;48.400;10.808;2023-03-01T13:51:25;7.50;54.50
38514;DHT22;24282;48.400;10.808;2023-03-01T13:53:55;7.50;55.60
38514;DHT22;24282;48.400;10.808;2023-03-01T13:56:27;7.50;55.50
38514;DHT22;24282;48.400;10.808;2023-03-01T13:58:59;7.50;55.80
38514;DHT22;24282;48.400;10.808;2023-03-01T14:01:32;7.50;56.00
38514;DHT22;24282;48.400;10.808;2023-03-01T14:03:58;7.50;56.10
38514;DHT22;24282;48.400;10.808;2023-03-01T14:06:32;7.50;55.70
38514;DHT22;24282;48.400;10.808;2023-03-01T14:09:20;7.50;55.80
38514;DHT22;24282;48.400;10.808;2023-03-01T14:17:32;7.50;55.50
38514;DHT22;24282;48.400;10.808;2023-03-01T14:20:19;7.50;56.30
38514;DHT22;24282;48.400;10.808;2023-03-01T14:22:46;7.40;56.50
38514;DHT22;24282;48.400;10.808;2023-03-01T14:25:31;7.40;56.30
38514;DHT22;24282;48.400;10.808;2023-03-01T14:28:21;7.40;56.10
38514;DHT22;24282;48.400;10.808;2023-03-01T14:30:50;7.40;56.50
38514;DHT22;24282;48.400;10.808;2023-03-01T14:33:29;7.40;56.50
38514;DHT22;24282;48.400;10.808;2023-03-01T14:36:24;7.30;57.00
38514;DHT22;24282;48.400;10.808;2023-03-01T14:38:50;7.20;56.90
38514;DHT22;24282;48.400;10.808;2023-03-01T14:41:20;7.30;56.70
38514;DHT22;24282;48.400;10.808;2023-03-01T14:44:07;7.20;57.30
38514;DHT22;24282;48.400;10.808;2023-03-01T14:46:39;7.20;57.80
38514;DHT22;24282;48.400;10.808;2023-03-01T14:49:22;7.20;56.70
38514;DHT22;24282;48.400;10.808;2023-03-01T14:52:04;7.20;56.60
38514;DHT22;24282;48.400;10.808;2023-03-01T14:54:42;7.20;56.80
38514;DHT22;24282;48.400;10.808;2023-03-01T14:57:19;7.20;57.00
38514;DHT22;24282;48.400;10.808;2023-03-01T14:59:48;7.20;57.40
38514;DHT22;24282;48.400;10.808;2023-03-01T15:02:25;7.10;57.30
38514;DHT22;24282;48.400;10.808;2023-03-01T15:04:55;7.20;57.30
38514;DHT22;24282;48.400;10.808;2023-03-01T15:07:29;7.20;57.20
38514;DHT22;24282;48.400;10.808;2023-03-01T15:09:57;7.20;57.30
38514;DHT22;24282;48.400;10.808;2023-03-01T15:12:40;7.20;57.70
38514;DHT22;24282;48.400;10.808;2023-03-01T15:18:00;7.10;58.20
38514;DHT22;24282;48.400;10.808;2023-03-01T15:20:28;7.10;58.20
38514;DHT22;24282;48.400;10.808;2023-03-01T15:22:57;7.10;58.20
38514;DHT22;24282;48.400;10.808;2023-03-01T15:25:27;7.10;58.50
38514;DHT22;24282;48.400;10.808;2023-03-01T15:27:56;7.20;58.20
38514;DHT22;24282;48.400;10.808;2023-03-01T15:30:30;7.20;61.80
38514;DHT22;24282;48.400;10.808;2023-03-01T15:35:50;7.40;58.70
38514;DHT22;24282;48.400;10.808;2023-03-01T15:41:37;7.40;58.20
38514;DHT22;24282;48.400;10.808;2023-03-01T15:44:27;7.20;58.20
38514;DHT22;24282;48.400;10.808;2023-03-01T15:46:53;7.20;58.30
38514;DHT22;24282;48.400;10.808;2023-03-01T15:52:01;7.10;58.40
38514;DHT22;24282;48.400;10.808;2023-03-01T15:54:28;7.00;58.80
38514;DHT22;24282;48.400;10.808;2023-03-01T15:56:54;6.90;59.20
38514;DHT22;24282;48.400;10.808;2023-03-01T15:59:20;6.90;59.70
38514;DHT22;24282;48.400;10.808;2023-03-01T16:01:48;6.90;59.80
38514;DHT22;24282;48.400;10.808;2023-03-01T16:04:16;6.90;59.60
38514;DHT22;24282;48.400;10.808;2023-03-01T16:06:52;6.80;59.80
38514;DHT22;24282;48.400;10.808;2023-03-01T16:09:24;6.80;60.30
38514;DHT22;24282;48.400;10.808;2023-03-01T16:11:52;6.80;60.40
38514;DHT22;24282;48.400;10.808;2023-03-01T16:14:18;6.70;60.20
38514;DHT22;24282;48.400;10.808;2023-03-01T16:16:45;6.60;60.50
38514;DHT22;24282;48.400;10.808;2023-03-01T16:19:11;6.60;60.70
38514;DHT22;24282;48.400;10.808;2023-03-01T16:21:37;6.50;60.50
38514;DHT22;24282;48.400;10.808;2023-03-01T16:24:04;6.50;60.60
38514;DHT22;24282;48.400;10.808;2023-03-01T16:26:30;6.40;61.00
38514;DHT22;24282;48.400;10.808;2023-03-01T16:28:56;6.40;61.10
38514;DHT22;24282;48.400;10.808;2023-03-01T16:31:23;6.30;61.20
38514;DHT22;24282;48.400;10.808;2023-03-01T16:33:54;6.30;61.10
38514;DHT22;24282;48.400;10.808;2023-03-01T16:36:22;6.30;61.20
38514;DHT22;24282;48.400;10.808;2023-03-01T16:38:50;6.20;61.50
38514;DHT22;24282;48.400;10.808;2023-03-01T16:41:18;6.20;61.60
38514;DHT22;24282;48.400;10.808;2023-03-01T16:43:44;6.10;62.00
38514;DHT22;24282;48.400;10.808;2023-03-01T16:46:12;6.10;62.10
38514;DHT22;24282;48.400;10.808;2023-03-01T16:48:39;6.00;62.40
38514;DHT22;24282;48.400;10.808;2023-03-01T16:51:05;6.00;62.70
38514;DHT22;24282;48.400;10.808;2023-03-01T16:53:33;6.00;63.20
38514;DHT22;24282;48.400;10.808;2023-03-01T16:56:02;5.90;63.60
38514;DHT22;24282;48.400;10.808;2023-03-01T16:58:28;5.90;63.90
38514;DHT22;24282;48.400;10.808;2023-03-01T17:00:55;5.80;64.00
38514;DHT22;24282;48.400;10.808;2023-03-01T17:03:23;5.80;64.10
38514;DHT22;24282;48.400;10.808;2023-03-01T17:05:49;5.70;64.30
38514;DHT22;24282;48.400;10.808;2023-03-01T17:08:16;5.70;64.60
38514;DHT22;24282;48.400;10.808;2023-03-01T17:10:42;5.60;64.90
38514;DHT22;24282;48.400;10.808;2023-03-01T17:13:08;5.60;64.80
38514;DHT22;24282;48.400;10.808;2023-03-01T17:15:37;5.50;64.90
38514;DHT22;24282;48.400;10.808;2023-03-01T17:18:03;5.50;65.10
38514;DHT22;24282;48.400;10.808;2023-03-01T17:20:29;5.50;65.20
38514;DHT22;24282;48.400;10.808;2023-03-01T17:22:54;5.50;65.20
38514;DHT22;24282;48.400;10.808;2023-03-01T17:25:20;5.50;65.30
38514;DHT22;24282;48.400;10.808;2023-03-01T17:27:46;5.50;65.40
38514;DHT22;24282;48.400;10.808;2023-03-01T17:30:13;5.50;65.20
38514;DHT22;24282;48.400;10.808;2023-03-01T17:32:39;5.50;65.40
38514;DHT22;24282;48.400;10.808;2023-03-01T17:35:05;5.50;65.20
38514;DHT22;24282;48.400;10.808;2023-03-01T17:37:33;5.50;65.00
38514;DHT22;24282;48.400;10.808;2023-03-01T17:39:58;5.50;65.00